Storrs Mansfield, CT

4:16 PM EDT on September 01, 2014 (GMT -0400)
Hartford-brainard | Change Station
CLOSE
Current Station
Airport
Location: Hartford,
Elevation: 16 ft
Nearby Weather Stations

Elev 16 ft 41.74 °N, 72.65 °W | Updated 23 minutes ago

Mostly Cloudy
Mostly Cloudy
85 °F
Feels Like 88 °F
N
6
Wind Variable Wind from SSE

Today
High -- | Low -- °F
--% Chance of Precip.
Yesterday
High -- | Low -- °F
Precip. -- in
6:14 AM 7:22 PM
Waxing Crescent, 44% visible
Pressure 29.91 in
Visibility 10.0 miles
Clouds Scattered Clouds 4500 ft
Mostly Cloudy 6000 ft
Heat Index 88 °F
Dew Point 68 °F
Humidity 57%
Rainfall 0.00 in
Snow Depth Not available.
UV 3 out of 12
Pollen 5.70 out of 12
Ozone Good
Flu Activity Not available.
METAR KHFD 011953Z 16005KT 10SM SCT045 BKN060 29/20 A2991 RMK AO2 SLP129 T02940200

More Conditions Fewer Conditions

Pressure 29.91 in
Visibility 10.0 miles
Clouds Scattered Clouds 4500 ft
Mostly Cloudy 6000 ft
Heat Index 88 °F
Dew Point 68 °F
Humidity 57%
Rainfall 0.00 in
Snow Depth Not available.
UV 3 out of 12
Pollen 5.70 out of 12
Ozone Good
Flu Activity Not available.
METAR KHFD 011953Z 16005KT 10SM SCT045 BKN060 29/20 A2991 RMK AO2 SLP129 T02940200

More Conditions Fewer Conditions

10-Day Weather Forecast

Almanac

Astronomy

Sep. 01, 2014 Rise Set
Actual Time 6:14 AM EDT 7:22 PM EDT
Civil Twilight 5:46 AM EDT 7:50 PM EDT
Nautical Twilight 5:11 AM EDT 8:25 PM EDT
Astronomical Twilight 4:36 AM EDT 9:00 PM EDT
Moon 1:03 PM EDT 11:15 PM EDT
Length of Visible Light 14h 04m
Length of Day
13h 07m
Tomorrow will be 2m 42s shorter.
Waxing Crescent, 44% of the Moon is Illuminated
Today
Waxing Crescent
Sep 2
First Quarter
Sep 8
Full
Sep 15
Last Quarter
Sep 24
New

Today's Extremes

State Highs State Lows

Community

WunderPhotos

Upload Photos

1,749,394 photos uploaded!

WunderBlogs® & News

Nearby

Air Quality

  Air Quality AQ Index Pollutant
Yesterday Good
OZONE
Current Good
OZONE
Monday Good
PM2.5
Monday Good
OZONE
Tuesday Moderate
OZONE
Tuesday Moderate
PM2.5

Snow Depth

Station Depth Elevation
No new snow has been reported.

Earthquake Activity

City Distance Mag. Time & Date
No recent earthquake activity has been reported nearby.
Minimum magnitude displayed is 2.5.

Coastal Water Temperatures

Place Temperature
New London, CT 71.1 °F
Newport, RI 71.1 °F
Quonset Point, RI 71.1 °F
Conimicut Light, RI 73.9 °F
Providence, RI 73.0 °F

Nearby Weather Stations